sensor_id;sensor_type;location;lat;lon;timestamp;pressure;altitude;pressure_sealevel;temperature;humidity
65276;BME280;51875;49.994;14.052;2022-10-29T00:00:55;99095.69;;;12.62;100.00
65276;BME280;51875;49.994;14.052;2022-10-29T00:02:24;99099.34;;;12.54;100.00
65276;BME280;51875;49.994;14.052;2022-10-29T00:03:40;99100.94;;;12.62;100.00
65276;BME280;51875;49.994;14.052;2022-10-29T00:04:56;99104.56;;;12.57;100.00
65276;BME280;51875;49.994;14.052;2022-10-29T00:06:12;99108.53;;;12.38;100.00
65276;BME280;51875;49.994;14.052;2022-10-29T00:07:28;99098.50;;;12.54;100.00
65276;BME280;51875;49.994;14.052;2022-10-29T00:08:44;99096.09;;;12.45;100.00
65276;BME280;51875;49.994;14.052;2022-10-29T00:10:00;99092.47;;;12.50;100.00
65276;BME280;51875;49.994;14.052;2022-10-29T00:11:17;99093.44;;;12.46;100.00
65276;BME280;51875;49.994;14.052;2022-10-29T00:12:33;99086.41;;;12.47;100.00
65276;BME280;51875;49.994;14.052;2022-10-29T00:13:54;99086.56;;;12.04;100.00
65276;BME280;51875;49.994;14.052;2022-10-29T00:15:10;99083.53;;;12.21;100.00
65276;BME280;51875;49.994;14.052;2022-10-29T00:16:28;99087.97;;;12.19;100.00
65276;BME280;51875;49.994;14.052;2022-10-29T00:17:44;99090.53;;;11.83;100.00
65276;BME280;51875;49.994;14.052;2022-10-29T00:18:59;99087.91;;;11.83;100.00
65276;BME280;51875;49.994;14.052;2022-10-29T00:20:15;99092.47;;;11.75;100.00
65276;BME280;51875;49.994;14.052;2022-10-29T00:21:32;99093.38;;;11.73;100.00
65276;BME280;51875;49.994;14.052;2022-10-29T00:22:52;99093.59;;;11.63;100.00
65276;BME280;51875;49.994;14.052;2022-10-29T00:24:09;99099.91;;;11.54;100.00
65276;BME280;51875;49.994;14.052;2022-10-29T00:25:25;99099.13;;;11.49;100.00
65276;BME280;51875;49.994;14.052;2022-10-29T00:26:40;99101.53;;;11.58;100.00
65276;BME280;51875;49.994;14.052;2022-10-29T00:27:56;99100.38;;;11.71;100.00
65276;BME280;51875;49.994;14.052;2022-10-29T00:29:12;99098.50;;;11.78;100.00
65276;BME280;51875;49.994;14.052;2022-10-29T00:30:27;99100.22;;;11.79;100.00
65276;BME280;51875;49.994;14.052;2022-10-29T00:31:43;99096.25;;;11.61;100.00
65276;BME280;51875;49.994;14.052;2022-10-29T00:32:58;99098.94;;;11.58;100.00
65276;BME280;51875;49.994;14.052;2022-10-29T00:34:14;99103.88;;;11.73;100.00
65276;BME280;51875;49.994;14.052;2022-10-29T00:35:29;99097.72;;;11.75;100.00
65276;BME280;51875;49.994;14.052;2022-10-29T00:36:45;99107.16;;;11.82;100.00
65276;BME280;51875;49.994;14.052;2022-10-29T00:38:00;99105.50;;;11.78;100.00
65276;BME280;51875;49.994;14.052;2022-10-29T00:39:16;99108.31;;;11.70;100.00
65276;BME280;51875;49.994;14.052;2022-10-29T00:40:38;99105.78;;;11.65;100.00
65276;BME280;51875;49.994;14.052;2022-10-29T00:41:53;99109.88;;;11.77;100.00
65276;BME280;51875;49.994;14.052;2022-10-29T00:43:13;99105.44;;;11.81;100.00
65276;BME280;51875;49.994;14.052;2022-10-29T00:44:32;99106.34;;;11.78;100.00
65276;BME280;51875;49.994;14.052;2022-10-29T00:46:43;99107.31;;;11.76;100.00
65276;BME280;51875;49.994;14.052;2022-10-29T00:47:39;99106.59;;;11.67;100.00
65276;BME280;51875;49.994;14.052;2022-10-29T00:48:55;99105.03;;;11.58;100.00
65276;BME280;51875;49.994;14.052;2022-10-29T00:50:13;99103.75;;;11.36;100.00
65276;BME280;51875;49.994;14.052;2022-10-29T00:51:29;99118.56;;;11.40;100.00
65276;BME280;51875;49.994;14.052;2022-10-29T00:52:49;99109.06;;;11.34;100.00
65276;BME280;51875;49.994;14.052;2022-10-29T00:54:08;99110.56;;;11.46;100.00
65276;BME280;51875;49.994;14.052;2022-10-29T00:55:25;99104.72;;;11.33;100.00
65276;BME280;51875;49.994;14.052;2022-10-29T00:56:48;99108.97;;;11.39;100.00
65276;BME280;51875;49.994;14.052;2022-10-29T00:58:05;99109.94;;;11.33;100.00
65276;BME280;51875;49.994;14.052;2022-10-29T00:59:21;99102.59;;;11.07;100.00
65276;BME280;51875;49.994;14.052;2022-10-29T01:00:37;99105.63;;;10.85;100.00
65276;BME280;51875;49.994;14.052;2022-10-29T01:01:53;99112.19;;;10.57;100.00
65276;BME280;51875;49.994;14.052;2022-10-29T01:03:10;99114.00;;;10.55;100.00
65276;BME280;51875;49.994;14.052;2022-10-29T01:04:25;99105.44;;;10.44;100.00
65276;BME280;51875;49.994;14.052;2022-10-29T01:05:43;99112.13;;;10.64;100.00
65276;BME280;51875;49.994;14.052;2022-10-29T01:06:59;99104.84;;;10.80;100.00
65276;BME280;51875;49.994;14.052;2022-10-29T01:08:15;99106.25;;;10.98;100.00
65276;BME280;51875;49.994;14.052;2022-10-29T01:09:31;99109.59;;;11.06;100.00
65276;BME280;51875;49.994;14.052;2022-10-29T01:10:59;99105.41;;;10.97;100.00
65276;BME280;51875;49.994;14.052;2022-10-29T01:14:28;99101.53;;;11.17;100.00
65276;BME280;51875;49.994;14.052;2022-10-29T01:17:42;99100.16;;;11.41;100.00
65276;BME280;51875;49.994;14.052;2022-10-29T01:22:16;99083.19;;;11.15;100.00
65276;BME280;51875;49.994;14.052;2022-10-29T01:26:31;99086.63;;;10.72;100.00
65276;BME280;51875;49.994;14.052;2022-10-29T01:30:09;99100.75;;;10.65;100.00
65276;BME280;51875;49.994;14.052;2022-10-29T01:31:33;99092.53;;;10.83;100.00
65276;BME280;51875;49.994;14.052;2022-10-29T01:35:10;99098.63;;;10.85;100.00
65276;BME280;51875;49.994;14.052;2022-10-29T01:36:35;99110.56;;;11.00;100.00
65276;BME280;51875;49.994;14.052;2022-10-29T01:39:35;99102.34;;;11.19;100.00
65276;BME280;51875;49.994;14.052;2022-10-29T01:42:00;99097.84;;;11.26;100.00
65276;BME280;51875;49.994;14.052;2022-10-29T01:42:48;99098.63;;;10.85;100.00
65276;BME280;51875;49.994;14.052;2022-10-29T01:45:43;99113.59;;;10.79;100.00
65276;BME280;51875;49.994;14.052;2022-10-29T01:47:02;99110.66;;;10.97;100.00
65276;BME280;51875;49.994;14.052;2022-10-29T01:48:25;99109.31;;;11.20;100.00
65276;BME280;51875;49.994;14.052;2022-10-29T01:49:43;99099.56;;;11.27;100.00
65276;BME280;51875;49.994;14.052;2022-10-29T01:51:06;99105.41;;;11.41;100.00
65276;BME280;51875;49.994;14.052;2022-10-29T01:52:24;99101.03;;;11.42;100.00
65276;BME280;51875;49.994;14.052;2022-10-29T01:54:21;99097.19;;;11.58;100.00
65276;BME280;51875;49.994;14.052;2022-10-29T01:55:36;99096.31;;;11.58;100.00
65276;BME280;51875;49.994;14.052;2022-10-29T01:56:55;99087.69;;;11.53;100.00
65276;BME280;51875;49.994;14.052;2022-10-29T01:58:12;99087.84;;;11.45;100.00
65276;BME280;51875;49.994;14.052;2022-10-29T01:59:29;99085.09;;;11.51;100.00
65276;BME280;51875;49.994;14.052;2022-10-29T02:06:24;99075.47;;;11.08;100.00
65276;BME280;51875;49.994;14.052;2022-10-29T02:09:38;99075.63;;;11.00;100.00
65276;BME280;51875;49.994;14.052;2022-10-29T02:12:24;99076.22;;;11.16;100.00
65276;BME280;51875;49.994;14.052;2022-10-29T02:13:57;99074.09;;;11.34;100.00
65276;BME280;51875;49.994;14.052;2022-10-29T02:16:32;99059.56;;;11.59;100.00
65276;BME280;51875;49.994;14.052;2022-10-29T02:17:49;99064.56;;;11.70;100.00
65276;BME280;51875;49.994;14.052;2022-10-29T02:19:04;99057.50;;;11.72;100.00
65276;BME280;51875;49.994;14.052;2022-10-29T02:20:20;99058.56;;;11.65;100.00
65276;BME280;51875;49.994;14.052;2022-10-29T02:21:36;99060.88;;;11.79;100.00
65276;BME280;51875;49.994;14.052;2022-10-29T02:22:51;99056.59;;;11.75;100.00
65276;BME280;51875;49.994;14.052;2022-10-29T02:24:07;99063.00;;;11.62;100.00
65276;BME280;51875;49.994;14.052;2022-10-29T02:25:23;99064.63;;;11.69;100.00
65276;BME280;51875;49.994;14.052;2022-10-29T02:26:39;99058.03;;;11.89;100.00
65276;BME280;51875;49.994;14.052;2022-10-29T02:27:54;99049.06;;;11.97;100.00
65276;BME280;51875;49.994;14.052;2022-10-29T02:29:10;99066.53;;;11.98;100.00
65276;BME280;51875;49.994;14.052;2022-10-29T02:30:25;99063.00;;;12.03;100.00
65276;BME280;51875;49.994;14.052;2022-10-29T02:31:41;99062.84;;;12.09;100.00
65276;BME280;51875;49.994;14.052;2022-10-29T02:32:57;99062.03;;;12.05;100.00
65276;BME280;51875;49.994;14.052;2022-10-29T02:34:12;99060.53;;;11.95;100.00
65276;BME280;51875;49.994;14.052;2022-10-29T02:35:28;99058.53;;;12.06;100.00
65276;BME280;51875;49.994;14.052;2022-10-29T02:36:45;99052.38;;;12.07;100.00
65276;BME280;51875;49.994;14.052;2022-10-29T02:38:00;99062.53;;;11.83;100.00
65276;BME280;51875;49.994;14.052;2022-10-29T02:39:16;99057.81;;;11.98;100.00
65276;BME280;51875;49.994;14.052;2022-10-29T02:40:31;99059.91;;;11.83;100.00
65276;BME280;51875;49.994;14.052;2022-10-29T02:41:47;99058.25;;;11.79;100.00
65276;BME280;51875;49.994;14.052;2022-10-29T02:43:03;99058.28;;;11.78;100.00
65276;BME280;51875;49.994;14.052;2022-10-29T02:44:18;99053.78;;;11.83;100.00
65276;BME280;51875;49.994;14.052;2022-10-29T02:45:34;99050.97;;;11.92;100.00
65276;BME280;51875;49.994;14.052;2022-10-29T02:46:49;99056.03;;;12.02;100.00
65276;BME280;51875;49.994;14.052;2022-10-29T02:48:05;99052.50;;;12.03;100.00
65276;BME280;51875;49.994;14.052;2022-10-29T02:49:21;99046.38;;;12.00;100.00
65276;BME280;51875;49.994;14.052;2022-10-29T02:50:36;99052.34;;;12.09;100.00
65276;BME280;51875;49.994;14.052;2022-10-29T02:51:52;99056.03;;;12.02;100.00
65276;BME280;51875;49.994;14.052;2022-10-29T02:53:08;99044.47;;;12.09;100.00
65276;BME280;51875;49.994;14.052;2022-10-29T02:54:23;99058.34;;;12.14;100.00
65276;BME280;51875;49.994;14.052;2022-10-29T02:55:39;99048.41;;;11.89;100.00
65276;BME280;51875;49.994;14.052;2022-10-29T02:56:54;99045.00;;;11.85;100.00
65276;BME280;51875;49.994;14.052;2022-10-29T02:58:10;99049.91;;;11.62;100.00
65276;BME280;51875;49.994;14.052;2022-10-29T02:59:25;99051.16;;;11.83;100.00
65276;BME280;51875;49.994;14.052;2022-10-29T03:00:41;99045.66;;;11.94;100.00
65276;BME280;51875;49.994;14.052;2022-10-29T03:01:56;99042.91;;;12.02;100.00
65276;BME280;51875;49.994;14.052;2022-10-29T03:03:13;99041.06;;;12.05;100.00
65276;BME280;51875;49.994;14.052;2022-10-29T03:04:28;99048.91;;;11.67;100.00
65276;BME280;51875;49.994;14.052;2022-10-29T03:05:44;99041.41;;;11.50;100.00
65276;BME280;51875;49.994;14.052;2022-10-29T03:07:00;99040.75;;;11.80;100.00
65276;BME280;51875;49.994;14.052;2022-10-29T03:08:17;99043.53;;;11.73;100.00
65276;BME280;51875;49.994;14.052;2022-10-29T03:09:33;99045.81;;;11.50;100.00
65276;BME280;51875;49.994;14.052;2022-10-29T03:10:48;99047.38;;;11.57;100.00
65276;BME280;51875;49.994;14.052;2022-10-29T03:12:04;99046.38;;;11.63;100.00
65276;BME280;51875;49.994;14.052;2022-10-29T03:13:20;99041.50;;;11.85;100.00
65276;BME280;51875;49.994;14.052;2022-10-29T03:14:35;99043.19;;;11.87;100.00
65276;BME280;51875;49.994;14.052;2022-10-29T03:15:51;99042.94;;;11.98;100.00
65276;BME280;51875;49.994;14.052;2022-10-29T03:17:07;99047.25;;;12.03;100.00
65276;BME280;51875;49.994;14.052;2022-10-29T03:18:23;99039.66;;;11.90;100.00
65276;BME280;51875;49.994;14.052;2022-10-29T03:19:38;99042.09;;;11.96;100.00
65276;BME280;51875;49.994;14.052;2022-10-29T03:20:54;99036.78;;;11.99;100.00
65276;BME280;51875;49.994;14.052;2022-10-29T03:22:09;99038.66;;;11.94;100.00
65276;BME280;51875;49.994;14.052;2022-10-29T03:23:25;99031.78;;;11.90;100.00
65276;BME280;51875;49.994;14.052;2022-10-29T03:24:41;99032.69;;;11.87;100.00
65276;BME280;51875;49.994;14.052;2022-10-29T03:25:56;99041.50;;;11.85;100.00
65276;BME280;51875;49.994;14.052;2022-10-29T03:27:12;99035.31;;;11.87;100.00
65276;BME280;51875;49.994;14.052;2022-10-29T03:28:27;99038.13;;;11.80;100.00
65276;BME280;51875;49.994;14.052;2022-10-29T03:29:44;99036.59;;;11.69;100.00
65276;BME280;51875;49.994;14.052;2022-10-29T03:31:00;99040.06;;;11.71;100.00
65276;BME280;51875;49.994;14.052;2022-10-29T03:32:16;99036.84;;;11.96;100.00
65276;BME280;51875;49.994;14.052;2022-10-29T03:33:32;99034.84;;;12.09;100.00
65276;BME280;51875;49.994;14.052;2022-10-29T03:34:48;99037.34;;;12.14;100.00
65276;BME280;51875;49.994;14.052;2022-10-29T03:36:05;99034.59;;;12.19;100.00
65276;BME280;51875;49.994;14.052;2022-10-29T03:37:20;99031.25;;;12.12;100.00
65276;BME280;51875;49.994;14.052;2022-10-29T03:38:36;99038.22;;;12.14;100.00
65276;BME280;51875;49.994;14.052;2022-10-29T03:39:52;99033.66;;;12.23;100.00
65276;BME280;51875;49.994;14.052;2022-10-29T03:41:07;99036.50;;;12.12;100.00
65276;BME280;51875;49.994;14.052;2022-10-29T03:42:24;99031.13;;;12.18;100.00
65276;BME280;51875;49.994;14.052;2022-10-29T03:43:40;99039.00;;;12.18;100.00
65276;BME280;51875;49.994;14.052;2022-10-29T03:44:57;99029.47;;;12.14;100.00
65276;BME280;51875;49.994;14.052;2022-10-29T03:46:12;99025.91;;;12.17;100.00
65276;BME280;51875;49.994;14.052;2022-10-29T03:47:28;99033.59;;;12.24;100.00
65276;BME280;51875;49.994;14.052;2022-10-29T03:48:44;99026.06;;;12.10;100.00
65276;BME280;51875;49.994;14.052;2022-10-29T03:50:03;99030.34;;;12.14;100.00
65276;BME280;51875;49.994;14.052;2022-10-29T03:51:18;99032.09;;;12.14;100.00
65276;BME280;51875;49.994;14.052;2022-10-29T03:52:34;99029.78;;;12.00;100.00
65276;BME280;51875;49.994;14.052;2022-10-29T03:53:50;99034.06;;;12.06;100.00
65276;BME280;51875;49.994;14.052;2022-10-29T03:55:06;99025.38;;;12.04;100.00
65276;BME280;51875;49.994;14.052;2022-10-29T03:56:21;99028.13;;;11.96;100.00
65276;BME280;51875;49.994;14.052;2022-10-29T03:57:37;99030.63;;;12.02;100.00
65276;BME280;51875;49.994;14.052;2022-10-29T03:58:53;99028.44;;;11.83;100.00
65276;BME280;51875;49.994;14.052;2022-10-29T04:00:09;99034.41;;;11.89;100.00
65276;BME280;51875;49.994;14.052;2022-10-29T04:01:24;99035.88;;;12.00;100.00
65276;BME280;51875;49.994;14.052;2022-10-29T04:02:40;99027.91;;;12.07;100.00
65276;BME280;51875;49.994;14.052;2022-10-29T04:03:55;99025.25;;;12.08;100.00
65276;BME280;51875;49.994;14.052;2022-10-29T04:05:11;99027.16;;;12.02;100.00
65276;BME280;51875;49.994;14.052;2022-10-29T04:06:26;99033.19;;;12.05;100.00
65276;BME280;51875;49.994;14.052;2022-10-29T04:07:42;99036.69;;;12.06;100.00
65276;BME280;51875;49.994;14.052;2022-10-29T04:08:57;99025.50;;;11.96;100.00
65276;BME280;51875;49.994;14.052;2022-10-29T04:10:13;99028.09;;;11.97;100.00
65276;BME280;51875;49.994;14.052;2022-10-29T04:11:29;99036.97;;;11.92;100.00
65276;BME280;51875;49.994;14.052;2022-10-29T04:12:45;99046.06;;;11.77;100.00
65276;BME280;51875;49.994;14.052;2022-10-29T04:14:01;99046.34;;;11.64;100.00
65276;BME280;51875;49.994;14.052;2022-10-29T04:15:16;99046.59;;;11.53;100.00
65276;BME280;51875;49.994;14.052;2022-10-29T04:16:32;99055.97;;;11.23;100.00
65276;BME280;51875;49.994;14.052;2022-10-29T04:17:49;99054.78;;;11.38;100.00
65276;BME280;51875;49.994;14.052;2022-10-29T04:19:05;99052.22;;;11.35;100.00
65276;BME280;51875;49.994;14.052;2022-10-29T04:20:21;99043.44;;;11.37;100.00
65276;BME280;51875;49.994;14.052;2022-10-29T04:21:36;99043.47;;;11.36;100.00
65276;BME280;51875;49.994;14.052;2022-10-29T04:22:52;99043.34;;;11.42;100.00
65276;BME280;51875;49.994;14.052;2022-10-29T04:24:08;99038.56;;;11.61;100.00
65276;BME280;51875;49.994;14.052;2022-10-29T04:25:23;99040.28;;;11.62;100.00
65276;BME280;51875;49.994;14.052;2022-10-29T04:26:41;99043.19;;;11.48;100.00
65276;BME280;51875;49.994;14.052;2022-10-29T04:27:57;99045.69;;;11.54;100.00
65276;BME280;51875;49.994;14.052;2022-10-29T04:29:13;99044.16;;;11.46;100.00
65276;BME280;51875;49.994;14.052;2022-10-29T04:30:29;99042.09;;;11.58;100.00
65276;BME280;51875;49.994;14.052;2022-10-29T04:31:44;99045.44;;;11.67;100.00
65276;BME280;51875;49.994;14.052;2022-10-29T04:33:00;99042.66;;;11.73;100.00
65276;BME280;51875;49.994;14.052;2022-10-29T04:34:16;99038.28;;;11.73;100.00
65276;BME280;51875;49.994;14.052;2022-10-29T04:35:31;99049.81;;;11.65;100.00
65276;BME280;51875;49.994;14.052;2022-10-29T04:36:46;99052.97;;;11.41;100.00
65276;BME280;51875;49.994;14.052;2022-10-29T04:38:11;99061.00;;;11.34;100.00
65276;BME280;51875;49.994;14.052;2022-10-29T04:39:27;99058.72;;;11.16;100.00
65276;BME280;51875;49.994;14.052;2022-10-29T04:40:43;99056.38;;;11.04;100.00
65276;BME280;51875;49.994;14.052;2022-10-29T04:41:59;99057.09;;;11.11;100.00
65276;BME280;51875;49.994;14.052;2022-10-29T04:43:15;99061.28;;;11.20;100.00
65276;BME280;51875;49.994;14.052;2022-10-29T04:44:31;99063.91;;;11.20;100.00
65276;BME280;51875;49.994;14.052;2022-10-29T04:45:50;99071.22;;;11.02;100.00
65276;BME280;51875;49.994;14.052;2022-10-29T04:47:06;99078.56;;;10.84;100.00
65276;BME280;51875;49.994;14.052;2022-10-29T04:48:22;99068.97;;;10.83;100.00
65276;BME280;51875;49.994;14.052;2022-10-29T04:49:38;99069.00;;;10.82;100.00
65276;BME280;51875;49.994;14.052;2022-10-29T04:50:54;99070.22;;;10.64;100.00
65276;BME280;51875;49.994;14.052;2022-10-29T04:52:09;99067.63;;;10.60;100.00
65276;BME280;51875;49.994;14.052;2022-10-29T04:53:25;99074.97;;;10.88;100.00
65276;BME280;51875;49.994;14.052;2022-10-29T04:54:41;99067.72;;;11.03;100.00
65276;BME280;51875;49.994;14.052;2022-10-29T04:56:00;99074.81;;;10.98;100.00
65276;BME280;51875;49.994;14.052;2022-10-29T04:57:16;99073.25;;;10.87;100.00
65276;BME280;51875;49.994;14.052;2022-10-29T04:58:31;99067.03;;;10.93;100.00
65276;BME280;51875;49.994;14.052;2022-10-29T04:59:47;99072.13;;;11.01;100.00
65276;BME280;51875;49.994;14.052;2022-10-29T05:01:03;99068.41;;;11.13;100.00
65276;BME280;51875;49.994;14.052;2022-10-29T05:02:21;99069.97;;;11.22;100.00
65276;BME280;51875;49.994;14.052;2022-10-29T05:03:37;99073.75;;;11.08;100.00
65276;BME280;51875;49.994;14.052;2022-10-29T05:04:52;99069.91;;;11.26;100.00
65276;BME280;51875;49.994;14.052;2022-10-29T05:06:08;99072.53;;;11.25;100.00
65276;BME280;51875;49.994;14.052;2022-10-29T05:07:23;99070.94;;;11.18;100.00
65276;BME280;51875;49.994;14.052;2022-10-29T05:08:39;99074.44;;;11.16;100.00
65276;BME280;51875;49.994;14.052;2022-10-29T05:09:55;99079.72;;;11.15;100.00
65276;BME280;51875;49.994;14.052;2022-10-29T05:11:10;99078.16;;;11.06;100.00
65276;BME280;51875;49.994;14.052;2022-10-29T05:12:26;99081.91;;;10.93;100.00
65276;BME280;51875;49.994;14.052;2022-10-29T05:13:41;99079.06;;;11.04;100.00
65276;BME280;51875;49.994;14.052;2022-10-29T05:14:58;99076.16;;;10.72;100.00
65276;BME280;51875;49.994;14.052;2022-10-29T05:16:13;99083.03;;;10.26;100.00
65276;BME280;51875;49.994;14.052;2022-10-29T05:17:29;99087.34;;;10.28;100.00
65276;BME280;51875;49.994;14.052;2022-10-29T05:18:44;99092.44;;;10.38;100.00
65276;BME280;51875;49.994;14.052;2022-10-29T05:20:00;99089.91;;;10.31;100.00
65276;BME280;51875;49.994;14.052;2022-10-29T05:21:15;99085.75;;;10.20;100.00
65276;BME280;51875;49.994;14.052;2022-10-29T05:22:31;99084.03;;;10.17;100.00
65276;BME280;51875;49.994;14.052;2022-10-29T05:23:47;99078.78;;;10.18;100.00
65276;BME280;51875;49.994;14.052;2022-10-29T05:25:03;99089.00;;;10.34;100.00
65276;BME280;51875;49.994;14.052;2022-10-29T05:26:18;99085.44;;;10.38;100.00
65276;BME280;51875;49.994;14.052;2022-10-29T05:27:34;99090.53;;;10.49;100.00
65276;BME280;51875;49.994;14.052;2022-10-29T05:28:50;99087.94;;;10.49;100.00
65276;BME280;51875;49.994;14.052;2022-10-29T05:30:07;99089.81;;;10.41;100.00
65276;BME280;51875;49.994;14.052;2022-10-29T05:31:23;99089.75;;;10.44;100.00
65276;BME280;51875;49.994;14.052;2022-10-29T05:32:38;99094.56;;;10.67;100.00
65276;BME280;51875;49.994;14.052;2022-10-29T05:33:54;99090.34;;;10.62;100.00
65276;BME280;51875;49.994;14.052;2022-10-29T05:35:09;99088.34;;;10.73;100.00
65276;BME280;51875;49.994;14.052;2022-10-29T05:36:25;99084.84;;;10.74;100.00
65276;BME280;51875;49.994;14.052;2022-10-29T05:37:40;99091.91;;;10.70;100.00
65276;BME280;51875;49.994;14.052;2022-10-29T05:38:56;99094.28;;;10.84;100.00
65276;BME280;51875;49.994;14.052;2022-10-29T05:40:11;99092.69;;;10.76;100.00
65276;BME280;51875;49.994;14.052;2022-10-29T05:41:27;99090.06;;;10.76;100.00
65276;BME280;51875;49.994;14.052;2022-10-29T05:42:42;99092.72;;;10.74;100.00
65276;BME280;51875;49.994;14.052;2022-10-29T05:43:58;99096.19;;;10.76;100.00
65276;BME280;51875;49.994;14.052;2022-10-29T05:45:14;99100.22;;;10.44;100.00
65276;BME280;51875;49.994;14.052;2022-10-29T05:46:30;99100.84;;;10.58;100.00
65276;BME280;51875;49.994;14.052;2022-10-29T05:47:46;99100.75;;;10.65;100.00
65276;BME280;51875;49.994;14.052;2022-10-29T05:49:01;99105.44;;;10.44;100.00
65276;BME280;51875;49.994;14.052;2022-10-29T05:50:17;99116.28;;;10.19;100.00
65276;BME280;51875;49.994;14.052;2022-10-29T05:51:32;99107.47;;;10.25;100.00
65276;BME280;51875;49.994;14.052;2022-10-29T05:52:59;99105.50;;;10.41;100.00
65276;BME280;51875;49.994;14.052;2022-10-29T05:54:14;99100.50;;;10.25;100.00
65276;BME280;51875;49.994;14.052;2022-10-29T05:55:32;99104.84;;;10.25;100.00
65276;BME280;51875;49.994;14.052;2022-10-29T05:56:48;99101.09;;;10.44;100.00
65276;BME280;51875;49.994;14.052;2022-10-29T05:58:06;99106.13;;;10.57;100.00
65276;BME280;51875;49.994;14.052;2022-10-29T05:59:23;99102.53;;;10.63;100.00
65276;BME280;51875;49.994;14.052;2022-10-29T06:00:41;99106.63;;;10.24;100.00
65276;BME280;51875;49.994;14.052;2022-10-29T06:01:57;99106.56;;;10.26;100.00
65276;BME280;51875;49.994;14.052;2022-10-29T06:03:15;99094.16;;;10.39;100.00
65276;BME280;51875;49.994;14.052;2022-10-29T06:04:33;99101.59;;;10.65;100.00
65276;BME280;51875;49.994;14.052;2022-10-29T06:05:49;99099.09;;;10.59;100.00
65276;BME280;51875;49.994;14.052;2022-10-29T06:07:05;99109.78;;;10.45;100.00
65276;BME280;51875;49.994;14.052;2022-10-29T06:08:20;99095.72;;;10.52;100.00
65276;BME280;51875;49.994;14.052;2022-10-29T06:09:36;99106.44;;;10.35;100.00
65276;BME280;51875;49.994;14.052;2022-10-29T06:10:52;99106.28;;;10.46;100.00
65276;BME280;51875;49.994;14.052;2022-10-29T06:12:07;99102.63;;;10.56;100.00
65276;BME280;51875;49.994;14.052;2022-10-29T06:13:23;99103.50;;;10.55;100.00
65276;BME280;51875;49.994;14.052;2022-10-29T06:14:38;99107.88;;;10.56;100.00
65276;BME280;51875;49.994;14.052;2022-10-29T06:15:58;99108.00;;;10.47;100.00
65276;BME280;51875;49.994;14.052;2022-10-29T06:17:14;99102.94;;;10.36;100.00
65276;BME280;51875;49.994;14.052;2022-10-29T06:18:29;99108.22;;;10.31;100.00
65276;BME280;51875;49.994;14.052;2022-10-29T06:19:45;99104.72;;;10.34;100.00
65276;BME280;51875;49.994;14.052;2022-10-29T06:21:01;99106.56;;;10.26;100.00
65276;BME280;51875;49.994;14.052;2022-10-29T06:22:16;99103.06;;;10.28;100.00
65276;BME280;51875;49.994;14.052;2022-10-29T06:23:32;99096.94;;;10.29;100.00
65276;BME280;51875;49.994;14.052;2022-10-29T06:24:48;99111.97;;;10.15;100.00
65276;BME280;51875;49.994;14.052;2022-10-29T06:26:03;99103.06;;;10.28;100.00
65276;BME280;51875;49.994;14.052;2022-10-29T06:27:19;99108.34;;;10.25;100.00
65276;BME280;51875;49.994;14.052;2022-10-29T06:28:35;99105.72;;;10.27;100.00
65276;BME280;51875;49.994;14.052;2022-10-29T06:29:50;99109.31;;;10.20;100.00
65276;BME280;51875;49.994;14.052;2022-10-29T06:31:06;99110.75;;;10.38;100.00
65276;BME280;51875;49.994;14.052;2022-10-29T06:32:22;99106.38;;;10.41;100.00
65276;BME280;51875;49.994;14.052;2022-10-29T06:33:37;99108.91;;;10.46;100.00
65276;BME280;51875;49.994;14.052;2022-10-29T06:34:53;99105.66;;;10.28;100.00
65276;BME280;51875;49.994;14.052;2022-10-29T06:36:08;99110.00;;;10.31;100.00
65276;BME280;51875;49.994;14.052;2022-10-29T06:37:24;99117.81;;;10.32;100.00
65276;BME280;51875;49.994;14.052;2022-10-29T06:38:39;99116.84;;;10.40;100.00
65276;BME280;51875;49.994;14.052;2022-10-29T06:39:55;99123.69;;;10.49;100.00
65276;BME280;51875;49.994;14.052;2022-10-29T06:41:11;99118.41;;;10.52;100.00
65276;BME280;51875;49.994;14.052;2022-10-29T06:42:27;99129.78;;;10.51;100.00
65276;BME280;51875;49.994;14.052;2022-10-29T06:43:43;99121.09;;;10.49;100.00
65276;BME280;51875;49.994;14.052;2022-10-29T06:44:58;99125.28;;;10.59;100.00
65276;BME280;51875;49.994;14.052;2022-10-29T06:46:14;99124.66;;;10.43;100.00
65276;BME280;51875;49.994;14.052;2022-10-29T06:47:29;99133.09;;;10.60;100.00
65276;BME280;51875;49.994;14.052;2022-10-29T06:48:45;99134.94;;;10.55;100.00
65276;BME280;51875;49.994;14.052;2022-10-29T06:50:00;99133.22;;;10.54;100.00
65276;BME280;51875;49.994;14.052;2022-10-29T06:51:16;99141.13;;;10.51;100.00
65276;BME280;51875;49.994;14.052;2022-10-29T06:52:31;99139.56;;;10.36;100.00
65276;BME280;51875;49.994;14.052;2022-10-29T06:53:47;99137.63;;;10.52;100.00
65276;BME280;51875;49.994;14.052;2022-10-29T06:55:04;99139.13;;;10.66;100.00
65276;BME280;51875;49.994;14.052;2022-10-29T06:56:20;99142.72;;;10.58;100.00
65276;BME280;51875;49.994;14.052;2022-10-29T06:57:36;99144.38;;;10.64;100.00
65276;BME280;51875;49.994;14.052;2022-10-29T06:58:51;99150.00;;;10.42;100.00
65276;BME280;51875;49.994;14.052;2022-10-29T07:00:08;99143.69;;;10.53;100.00
65276;BME280;51875;49.994;14.052;2022-10-29T07:01:24;99146.34;;;10.51;100.00
65276;BME280;51875;49.994;14.052;2022-10-29T07:02:42;99147.00;;;10.64;100.00
65276;BME280;51875;49.994;14.052;2022-10-29T07:03:58;99141.25;;;10.43;100.00
65276;BME280;51875;49.994;14.052;2022-10-29T07:05:14;99148.16;;;10.49;100.00